Time;durP1;ratioP1;P1;durP2;ratioP2;P2;SDS_P1;SDS_P2;PMS_P1;PMS_P2;Temp;Humidity;BMP_temperature;BMP_pressure;BME280_temperature;BME280_humidity;BME280_pressure;Samples;Min_cycle;Max_cycle;Signal;HPM_P1;HPM_P2
2021/10/09 00:02:09;;;;;;;0.80;0.55;;;;;;;6.91;100.00;95566.91;5089629;28;20048;-65
2021/10/09 00:04:35;;;;;;;4.65;2.45;;;;;;;6.91;100.00;95567.69;5087613;28;20508;-65
2021/10/09 00:07:02;;;;;;;2.80;1.75;;;;;;;6.75;100.00;95557.63;5090749;28;20044;-65
2021/10/09 00:09:29;;;;;;;3.72;2.33;;;;;;;6.70;100.00;95556.41;5090406;28;20048;-65
2021/10/09 00:11:56;;;;;;;2.13;1.30;;;;;;;6.78;100.00;95557.25;5085317;28;20108;-65
2021/10/09 00:14:23;;;;;;;3.42;2.03;;;;;;;6.85;100.00;95564.09;5093979;28;20036;-65
2021/10/09 00:16:51;;;;;;;4.15;2.47;;;;;;;6.89;100.00;95559.31;5067558;28;20047;-65
2021/10/09 00:19:18;;;;;;;1.85;1.27;;;;;;;6.87;100.00;95556.13;5086418;28;20047;-65
2021/10/09 00:21:45;;;;;;;1.30;0.93;;;;;;;6.80;100.00;95544.94;5070834;28;20040;-66
2021/10/09 00:24:17;;;;;;;1.00;0.70;;;;;;;6.93;100.00;95557.16;5086227;28;20117;-65
2021/10/09 00:26:45;;;;;;;1.35;0.65;;;;;;;6.99;100.00;95559.78;5068473;28;20438;-65
2021/10/09 00:29:12;;;;;;;1.00;0.80;;;;;;;7.03;100.00;95553.22;5092067;28;20039;-65
2021/10/09 00:31:39;;;;;;;2.97;1.17;;;;;;;6.92;100.00;95543.41;5071856;28;20043;-66
2021/10/09 00:34:06;;;;;;;3.88;1.88;;;;;;;7.08;100.00;95548.28;5085788;28;20107;-65
2021/10/09 00:36:33;;;;;;;2.60;1.02;;;;;;;7.16;100.00;95543.94;5100283;28;20043;-66
2021/10/09 00:39:00;;;;;;;2.10;1.40;;;;;;;7.18;100.00;95541.94;5085608;28;20036;-65
2021/10/09 00:41:27;;;;;;;1.40;1.30;;;;;;;7.19;100.00;95543.56;5085418;28;20119;-65
2021/10/09 00:43:53;;;;;;;1.92;1.13;;;;;;;7.04;100.00;95536.72;5086446;28;20035;-65
2021/10/09 00:46:21;;;;;;;4.40;2.08;;;;;;;7.05;100.00;95540.88;5086717;28;20048;-66
2021/10/09 00:48:47;;;;;;;2.83;1.27;;;;;;;6.92;100.00;95538.22;5069230;28;20043;-65
2021/10/09 00:51:14;;;;;;;4.13;2.75;;;;;;;6.73;100.00;95538.91;5086537;28;20044;-65
2021/10/09 00:53:41;;;;;;;9.05;6.18;;;;;;;6.64;100.00;95535.66;5088402;28;20044;-65
2021/10/09 00:56:09;;;;;;;2.08;1.20;;;;;;;6.58;100.00;95537.22;5085820;28;20118;-66
2021/10/09 00:58:38;;;;;;;2.70;1.75;;;;;;;6.55;100.00;95529.81;5090952;28;20479;-66
2021/10/09 01:01:05;;;;;;;4.28;1.50;;;;;;;6.66;100.00;95531.09;5100896;28;20435;-65
2021/10/09 01:03:33;;;;;;;3.65;1.52;;;;;;;6.88;100.00;95537.03;5084251;28;20056;-66
2021/10/09 01:06:00;;;;;;;2.17;1.02;;;;;;;6.68;100.00;95537.69;5094233;28;20411;-66
2021/10/09 01:08:27;;;;;;;3.83;1.73;;;;;;;6.58;100.00;95526.84;5086072;28;20060;-66
2021/10/09 01:10:54;;;;;;;3.85;2.00;;;;;;;6.62;100.00;95522.91;5084052;28;20567;-66
2021/10/09 01:13:21;;;;;;;9.52;5.35;;;;;;;6.69;100.00;95534.09;5067684;28;20048;-65
2021/10/09 01:15:48;;;;;;;7.53;3.70;;;;;;;6.68;100.00;95522.16;5066960;28;20416;-65
2021/10/09 01:18:17;;;;;;;3.85;1.73;;;;;;;6.84;100.00;95531.41;5073362;28;20109;-65
2021/10/09 01:20:52;;;;;;;5.03;3.25;;;;;;;6.79;100.00;95522.59;5070714;28;20548;-65
2021/10/09 01:23:22;;;;;;;4.18;2.08;;;;;;;6.82;100.00;95530.00;5086017;28;20036;-66
2021/10/09 01:25:50;;;;;;;3.42;1.58;;;;;;;6.79;100.00;95527.78;5067787;28;20040;-65
2021/10/09 01:28:18;;;;;;;3.47;1.30;;;;;;;6.74;100.00;95522.41;5067799;28;20126;-66
2021/10/09 01:30:46;;;;;;;1.83;1.08;;;;;;;6.73;100.00;95524.16;5101121;27;20032;-66
2021/10/09 01:33:14;;;;;;;1.52;0.80;;;;;;;6.68;100.00;95522.16;5084554;28;20453;-66
2021/10/09 01:35:51;;;;;;;2.67;1.15;;;;;;;6.66;100.00;95523.31;5065173;28;20048;-66
2021/10/09 01:38:25;;;;;;;4.43;1.65;;;;;;;6.78;100.00;95510.66;5101825;27;20052;-66
2021/10/09 01:40:54;;;;;;;1.80;0.90;;;;;;;6.90;100.00;95522.09;5068032;28;20059;-67
2021/10/09 01:43:23;;;;;;;2.25;1.00;;;;;;;6.84;100.00;95509.88;5067721;28;20516;-65
2021/10/09 01:45:50;;;;;;;1.73;0.70;;;;;;;6.91;100.00;95523.69;5105291;28;20086;-65
2021/10/09 01:48:17;;;;;;;1.70;1.17;;;;;;;6.95;100.00;95517.16;5106116;28;20043;-65
2021/10/09 01:50:45;;;;;;;2.10;1.02;;;;;;;6.86;100.00;95518.25;5096915;28;20044;-65
2021/10/09 01:53:14;;;;;;;6.03;3.58;;;;;;;6.75;100.00;95516.22;5079520;28;20141;-65
2021/10/09 01:55:41;;;;;;;4.88;2.45;;;;;;;6.66;100.00;95515.56;5087331;28;20118;-66
2021/10/09 01:58:11;;;;;;;2.15;0.93;;;;;;;6.70;100.00;95520.19;5086147;28;20050;-66
2021/10/09 02:00:38;;;;;;;2.30;1.42;;;;;;;6.77;100.00;95519.41;5121520;27;20036;-65
2021/10/09 02:03:07;;;;;;;6.20;3.50;;;;;;;6.46;100.00;95503.31;5110865;27;20526;-65
2021/10/09 02:05:35;;;;;;;4.03;2.58;;;;;;;6.49;100.00;95512.47;5118334;27;20043;-65
2021/10/09 02:08:03;;;;;;;5.57;3.25;;;;;;;6.38;100.00;95510.41;5078200;28;20067;-65
2021/10/09 02:10:32;;;;;;;1.30;1.00;;;;;;;6.46;100.00;95512.81;5082428;28;20069;-66
2021/10/09 02:13:08;;;;;;;1.50;0.82;;;;;;;6.49;100.00;95513.25;5099964;28;20094;-65
2021/10/09 02:15:47;;;;;;;4.95;0.90;;;;;;;6.52;100.00;95506.91;5100368;27;20071;-65
2021/10/09 02:26:15;;;;;;;23.70;11.35;;;;;;;6.63;100.00;95519.34;5073241;28;20165;-66
2021/10/09 02:28:43;;;;;;;19.05;8.57;;;;;;;6.73;100.00;95518.19;5085307;28;20039;-66
2021/10/09 02:31:10;;;;;;;14.15;6.22;;;;;;;6.86;100.00;95513.09;5085272;28;20040;-66
2021/10/09 02:33:37;;;;;;;7.30;3.72;;;;;;;6.96;100.00;95516.13;5073656;28;20420;-66
2021/10/09 02:36:05;;;;;;;2.67;1.90;;;;;;;6.84;100.00;95504.72;5086844;28;20051;-65
2021/10/09 02:38:33;;;;;;;1.95;1.30;;;;;;;6.75;100.00;95516.22;5068195;28;20055;-65
2021/10/09 02:41:02;;;;;;;1.92;1.00;;;;;;;6.59;100.00;95512.13;5073338;28;20077;-66
2021/10/09 02:43:29;;;;;;;13.50;6.65;;;;;;;6.68;100.00;95504.03;5086720;28;20063;-65
2021/10/09 02:45:56;;;;;;;2.63;1.83;;;;;;;6.79;100.00;95514.84;5068098;28;20555;-66
2021/10/09 02:48:29;;;;;;;1.58;1.30;;;;;;;6.86;100.00;95513.09;5067290;28;20137;-65
2021/10/09 02:50:56;;;;;;;1.88;1.23;;;;;;;6.88;100.00;95511.13;5065824;28;20062;-65
2021/10/09 02:53:24;;;;;;;1.73;0.95;;;;;;;6.90;100.00;95511.72;5074101;28;20044;-65
2021/10/09 02:55:51;;;;;;;1.77;1.27;;;;;;;6.81;100.00;95512.88;5086436;28;20516;-65
2021/10/09 02:58:18;;;;;;;3.20;1.00;;;;;;;6.58;100.00;95506.16;5120649;27;20075;-66
2021/10/09 03:00:46;;;;;;;1.40;0.90;;;;;;;6.52;100.00;95506.91;5077639;28;20097;-66
2021/10/09 03:03:16;;;;;;;2.65;1.20;;;;;;;6.56;100.00;95500.38;5066463;28;20126;-66
2021/10/09 03:05:43;;;;;;;3.00;1.73;;;;;;;6.40;100.00;95503.25;5105184;28;20043;-66
2021/10/09 03:08:13;;;;;;;4.18;1.70;;;;;;;6.50;100.00;95498.56;5103497;28;20052;-66
2021/10/09 03:10:40;;;;;;;2.20;1.08;;;;;;;6.59;100.00;95512.13;5081572;28;21950;-66
2021/10/09 03:13:07;;;;;;;4.53;2.50;;;;;;;6.57;100.00;95509.75;5065888;28;20135;-66
2021/10/09 03:15:34;;;;;;;15.15;3.80;;;;;;;6.53;100.00;95508.50;5105586;28;20054;-65
2021/10/09 03:18:02;;;;;;;3.05;2.13;;;;;;;6.50;100.00;95503.72;5117293;28;20042;-65
2021/10/09 03:20:31;;;;;;;2.33;1.55;;;;;;;6.43;100.00;95510.63;5117471;28;20058;-66
2021/10/09 03:22:58;;;;;;;1.95;1.20;;;;;;;6.34;100.00;95503.97;5086603;28;20047;-66
2021/10/09 03:25:25;;;;;;;2.75;1.95;;;;;;;6.24;100.00;95510.28;5070718;28;20401;-66
2021/10/09 03:27:51;;;;;;;4.07;1.38;;;;;;;6.21;100.00;95510.66;5096586;28;20063;-66
2021/10/09 03:30:20;;;;;;;2.97;1.77;;;;;;;6.29;100.00;95518.28;5065102;28;20048;-66
2021/10/09 03:32:47;;;;;;;1.83;1.02;;;;;;;6.33;100.00;95518.72;5101970;28;20046;-66
2021/10/09 03:35:13;;;;;;;3.08;1.40;;;;;;;6.35;100.00;95513.34;5089990;28;20047;-65
2021/10/09 03:37:42;;;;;;;3.10;1.55;;;;;;;6.44;100.00;95509.63;5100803;28;20040;-66
2021/10/09 03:40:14;;;;;;;3.70;1.65;;;;;;;6.48;100.00;95511.66;5074942;28;20047;-66
2021/10/09 03:42:50;;;;;;;0.88;0.63;;;;;;;6.51;100.00;95515.66;5100031;28;20101;-65
2021/10/09 03:45:58;;;;;;;1.10;0.73;;;;;;;6.45;100.00;95511.25;5082074;28;20125;-66
2021/10/09 03:53:37;;;;;;;3.05;1.70;;;;;;;6.30;100.00;95514.72;5077541;28;20040;-66
2021/10/09 03:56:06;;;;;;;2.90;1.10;;;;;;;6.32;100.00;95504.97;5065973;28;20447;-65
2021/10/09 03:58:40;;;;;;;3.78;1.52;;;;;;;6.25;100.00;95506.72;5082902;28;20048;-66
2021/10/09 04:01:07;;;;;;;8.43;3.53;;;;;;;6.49;100.00;95507.28;5115109;28;20419;-66
2021/10/09 04:03:34;;;;;;;8.68;4.18;;;;;;;6.62;100.00;95507.38;5085861;28;20108;-65
2021/10/09 04:06:03;;;;;;;3.90;1.88;;;;;;;6.60;100.00;95504.16;5098758;28;20040;-66
2021/10/09 04:08:30;;;;;;;1.20;0.75;;;;;;;6.70;100.00;95515.00;5071948;28;20043;-65
2021/10/09 04:10:58;;;;;;;2.78;2.38;;;;;;;6.73;100.00;95513.00;5080925;28;20057;-65
2021/10/09 04:13:26;;;;;;;4.90;2.08;;;;;;;6.63;100.00;95511.56;5070330;28;20097;-65
2021/10/09 04:15:53;;;;;;;4.78;2.67;;;;;;;6.69;100.00;95508.22;5068473;28;20047;-65
2021/10/09 04:18:20;;;;;;;5.05;3.20;;;;;;;6.72;100.00;95511.41;5069652;28;20513;-65
2021/10/09 04:20:47;;;;;;;5.88;2.47;;;;;;;6.75;100.00;95513.63;5069283;28;20123;-65
2021/10/09 04:23:14;;;;;;;3.17;1.83;;;;;;;6.76;100.00;95512.66;5103413;28;20044;-66
2021/10/09 04:25:41;;;;;;;3.83;2.20;;;;;;;6.73;100.00;95513.00;5075416;28;20122;-66
2021/10/09 04:28:08;;;;;;;2.85;1.35;;;;;;;6.74;100.00;95510.25;5068313;28;20085;-66
2021/10/09 04:30:35;;;;;;;3.88;2.22;;;;;;;6.73;100.00;95518.19;5072357;28;20047;-67
2021/10/09 04:33:03;;;;;;;3.63;2.20;;;;;;;6.81;100.00;95521.44;5083713;28;20047;-65
2021/10/09 04:35:31;;;;;;;2.85;1.83;;;;;;;6.83;100.00;95521.25;5103528;28;20040;-66
2021/10/09 04:38:05;;;;;;;3.25;1.90;;;;;;;6.79;100.00;95513.06;5089402;28;20047;-66
2021/10/09 04:40:34;;;;;;;2.08;1.52;;;;;;;6.89;100.00;95529.03;5074059;28;20427;-66
2021/10/09 04:43:01;;;;;;;2.58;1.75;;;;;;;6.92;100.00;95517.53;5088836;28;20044;-66
2021/10/09 04:45:27;;;;;;;2.50;1.30;;;;;;;6.97;100.00;95520.34;5107735;28;20043;-66
2021/10/09 04:47:55;;;;;;;3.08;1.90;;;;;;;6.98;100.00;95521.91;5075572;28;20097;-66
2021/10/09 04:50:22;;;;;;;1.20;1.08;;;;;;;7.03;100.00;95523.94;5068067;28;20165;-67
2021/10/09 04:52:50;;;;;;;1.95;0.93;;;;;;;7.02;100.00;95528.34;5108529;27;20131;-66
2021/10/09 04:55:17;;;;;;;1.40;0.90;;;;;;;7.04;100.00;95525.53;5115105;27;20039;-66
2021/10/09 04:57:45;;;;;;;2.30;1.10;;;;;;;6.98;100.00;95514.16;5113352;27;20082;-66
2021/10/09 05:00:12;;;;;;;7.22;1.70;;;;;;;7.15;100.00;95532.78;5068879;28;20089;-66
2021/10/09 05:02:39;;;;;;;2.28;1.70;;;;;;;7.24;100.00;95525.66;5101746;28;20048;-66
2021/10/09 05:05:07;;;;;;;28.13;5.22;;;;;;;7.19;100.00;95530.63;5117217;27;20051;-66
2021/10/09 05:07:36;;;;;;;29.65;8.15;;;;;;;6.85;100.00;95543.38;5085216;28;20062;-66
2021/10/09 05:10:04;;;;;;;12.85;4.68;;;;;;;6.93;100.00;95534.63;5073652;28;20040;-67
2021/10/09 05:12:32;;;;;;;24.55;7.28;;;;;;;6.94;100.00;95536.25;5069306;28;20475;-66
2021/10/09 05:14:59;;;;;;;4.32;1.85;;;;;;;6.90;100.00;95535.03;5066862;28;20036;-66
2021/10/09 05:17:26;;;;;;;15.18;3.85;;;;;;;6.89;100.00;95541.19;5068211;28;20101;-66
2021/10/09 05:19:54;;;;;;;10.13;3.60;;;;;;;6.85;100.00;95537.41;5085211;28;20040;-66
2021/10/09 05:22:21;;;;;;;10.23;4.32;;;;;;;6.88;100.00;95537.81;5063724;28;20044;-66
2021/10/09 05:24:50;;;;;;;20.08;6.20;;;;;;;6.77;100.00;95532.34;5077306;28;20131;-66
2021/10/09 05:27:17;;;;;;;25.50;7.38;;;;;;;6.81;100.00;95541.38;5085240;28;20393;-66
2021/10/09 05:29:44;;;;;;;27.20;9.40;;;;;;;6.79;100.00;95538.97;5085651;28;20075;-66
2021/10/09 05:32:11;;;;;;;8.57;5.43;;;;;;;6.83;100.00;95547.16;5070310;28;20037;-66
2021/10/09 05:34:39;;;;;;;12.60;3.97;;;;;;;6.80;100.00;95539.75;5062378;28;20041;-66
2021/10/09 05:37:05;;;;;;;10.52;4.82;;;;;;;6.74;100.00;95545.69;5086286;28;20044;-66
2021/10/09 05:39:33;;;;;;;13.68;5.93;;;;;;;6.75;100.00;95542.09;5064818;28;20099;-67
2021/10/09 05:42:01;;;;;;;34.20;14.95;;;;;;;6.81;100.00;95547.31;5068283;28;20520;-66
2021/10/09 05:44:28;;;;;;;48.13;28.00;;;;;;;6.56;100.00;95534.00;5073836;28;20032;-66
2021/10/09 05:46:55;;;;;;;142.82;74.30;;;;;;;6.70;100.00;95553.84;5081510;28;20060;-66
2021/10/09 05:49:23;;;;;;;21.80;11.25;;;;;;;6.76;100.00;95548.88;5065736;28;20040;-66
2021/10/09 05:51:56;;;;;;;16.55;7.68;;;;;;;6.84;100.00;95556.50;5082527;28;20162;-66
2021/10/09 05:54:41;;;;;;;31.50;11.05;;;;;;;6.82;100.00;95553.31;5073717;28;20041;-66
2021/10/09 06:00:05;;;;;;;18.30;6.35;;;;;;;6.73;100.00;95555.22;5077484;28;20098;-66
2021/10/09 06:25:16;;;;;;;95.80;37.13;;;;;;;6.88;100.00;95565.50;5069732;28;20046;-65
2021/10/09 06:47:04;;;;;;;3.30;2.00;;;;;;;7.05;100.00;95590.09;5080931;28;20055;-65
2021/10/09 06:49:40;;;;;;;2.03;1.30;;;;;;;6.96;100.00;95596.41;5066293;28;20044;-65
2021/10/09 07:00:41;;;;;;;1.60;1.17;;;;;;;7.32;100.00;95605.81;5079794;28;20483;-65
2021/10/09 07:03:09;;;;;;;1.52;0.60;;;;;;;7.29;100.00;95608.78;5082088;28;20575;-66
2021/10/09 07:05:41;;;;;;;2.40;0.55;;;;;;;7.17;100.00;95597.38;5073958;28;20048;-65
2021/10/09 07:08:34;;;;;;;2.67;2.25;;;;;;;7.36;100.00;95612.19;5061688;28;20191;-66
2021/10/09 07:11:14;;;;;;;1.30;0.90;;;;;;;7.34;100.00;95598.63;5079218;28;20044;-64
2021/10/09 07:13:43;;;;;;;2.50;1.27;;;;;;;7.38;100.00;95602.47;5079061;28;20131;-66
2021/10/09 07:16:10;;;;;;;5.00;2.38;;;;;;;7.53;100.00;95604.13;5078840;28;20048;-66
2021/10/09 07:18:37;;;;;;;2.55;1.05;;;;;;;7.49;100.00;95595.13;5061302;28;20129;-65
2021/10/09 07:21:04;;;;;;;7.57;2.78;;;;;;;7.53;100.00;95591.16;5062400;28;20102;-65
2021/10/09 07:23:31;;;;;;;12.63;6.65;;;;;;;7.50;100.00;95601.91;5062184;28;20041;-67
2021/10/09 07:25:58;;;;;;;16.92;5.60;;;;;;;7.56;100.00;95611.50;5062746;28;20036;-65
2021/10/09 07:28:25;;;;;;;6.97;3.88;;;;;;;7.46;100.00;95612.66;5063065;28;20480;-65
2021/10/09 07:30:52;;;;;;;11.57;4.07;;;;;;;7.38;100.00;95604.25;5062557;28;20500;-66
2021/10/09 07:33:18;;;;;;;13.20;8.10;;;;;;;7.43;100.00;95602.66;5063514;28;20059;-66
2021/10/09 07:35:45;;;;;;;2.33;1.67;;;;;;;7.26;100.00;95606.59;5061886;28;20048;-65
2021/10/09 07:38:14;;;;;;;1.20;0.82;;;;;;;7.37;100.00;95606.03;5062020;28;20050;-65
2021/10/09 07:40:41;;;;;;;5.38;2.00;;;;;;;7.47;100.00;95609.09;5061743;28;20048;-66
2021/10/09 07:43:07;;;;;;;8.40;2.83;;;;;;;7.58;100.00;95614.69;5061846;28;20048;-66
2021/10/09 07:45:34;;;;;;;2.63;1.60;;;;;;;7.70;100.00;95607.97;5064507;28;20037;-66
2021/10/09 07:48:01;;;;;;;3.50;1.08;;;;;;;7.77;100.00;95602.81;5063787;28;20416;-64
2021/10/09 07:50:28;;;;;;;4.75;1.45;;;;;;;7.91;100.00;95604.47;5066292;28;20142;-66
2021/10/09 07:52:55;;;;;;;1.70;0.93;;;;;;;7.89;99.89;95595.31;5067884;28;20552;-66
2021/10/09 07:55:22;;;;;;;2.42;1.60;;;;;;;7.85;100.00;95611.25;5068024;28;20504;-65
2021/10/09 07:57:48;;;;;;;3.15;2.10;;;;;;;7.91;100.00;95608.88;5068094;28;20115;-66
2021/10/09 08:00:15;;;;;;;9.15;2.95;;;;;;;7.92;100.00;95615.63;5068108;28;20059;-66
2021/10/09 08:02:47;;;;;;;5.05;2.35;;;;;;;7.80;99.38;95603.25;5067452;28;20041;-65
2021/10/09 08:05:14;;;;;;;11.38;4.18;;;;;;;7.83;99.77;95613.22;5067946;28;20094;-65
2021/10/09 08:07:42;;;;;;;4.20;1.90;;;;;;;7.84;99.68;95625.19;5066071;28;20059;-66
2021/10/09 08:10:09;;;;;;;13.07;7.18;;;;;;;7.73;100.00;95627.56;5066271;28;20040;-66
2021/10/09 08:12:37;;;;;;;8.82;5.15;;;;;;;7.68;100.00;95625.53;5061189;28;20135;-65
2021/10/09 08:15:05;;;;;;;1.08;0.77;;;;;;;7.58;100.00;95619.88;5067029;28;20040;-66
2021/10/09 08:17:32;;;;;;;2.78;1.52;;;;;;;7.71;100.00;95627.75;5065087;28;20052;-66
2021/10/09 08:19:59;;;;;;;6.53;3.20;;;;;;;7.63;100.00;95633.06;5060451;28;20044;-65
2021/10/09 08:22:28;;;;;;;33.28;7.32;;;;;;;7.62;100.00;95631.50;5059081;28;20036;-65
2021/10/09 08:25:22;;;;;;;18.75;7.53;;;;;;;7.76;100.00;95630.56;5060585;28;20521;-65
2021/10/09 08:35:22;;;;;;;12.65;7.70;;;;;;;7.70;100.00;95623.53;5061868;28;20048;-64
2021/10/09 08:38:53;;;;;;;8.65;3.45;;;;;;;8.03;99.88;95643.59;5067114;28;20048;-65
2021/10/09 08:41:36;;;;;;;2.65;1.10;;;;;;;8.04;99.80;95621.88;5056649;28;20044;-64
2021/10/09 08:44:03;;;;;;;1.08;0.50;;;;;;;8.10;100.00;95647.03;5062262;28;20048;-65
2021/10/09 08:46:29;;;;;;;2.20;1.17;;;;;;;8.07;100.00;95650.03;5059925;28;20044;-65
2021/10/09 08:48:56;;;;;;;1.45;1.35;;;;;;;8.14;100.00;95650.84;5059166;28;20041;-65
2021/10/09 08:51:27;;;;;;;1.40;1.00;;;;;;;8.32;100.00;95641.69;5055164;28;20162;-64
2021/10/09 08:54:06;;;;;;;1.92;1.33;;;;;;;8.43;100.00;95638.56;5061792;28;20513;-65
2021/10/09 08:56:35;;;;;;;1.95;1.27;;;;;;;8.57;100.00;95644.56;5058535;28;20054;-65
2021/10/09 08:59:13;;;;;;;4.88;1.08;;;;;;;8.67;99.28;95646.78;5059612;28;20135;-65
2021/10/09 09:01:52;;;;;;;1.33;1.23;;;;;;;8.75;99.05;95641.38;5059948;28;20043;-65
2021/10/09 09:04:56;;;;;;;1.40;1.17;;;;;;;8.75;98.37;95641.38;5064574;28;20076;-65
2021/10/09 09:40:41;;;;;;;3.00;1.50;;;;;;;8.70;98.31;95634.19;5089875;28;20067;-70
2021/10/09 09:43:09;;;;;;;13.13;2.63;;;;;;;8.70;99.60;95638.59;5093389;28;20036;-70
2021/10/09 09:45:37;;;;;;;5.45;2.72;;;;;;;8.78;100.00;95639.19;5089485;28;20059;-70
2021/10/09 09:48:06;;;;;;;22.67;5.82;;;;;;;8.78;98.02;95648.78;5073022;28;20035;-70
2021/10/09 09:50:35;;;;;;;29.23;7.60;;;;;;;8.79;98.64;95650.41;5086932;28;20078;-69
2021/10/09 09:53:03;;;;;;;32.28;8.50;;;;;;;8.76;99.28;95632.59;5073358;28;20031;-69
2021/10/09 09:55:30;;;;;;;54.95;9.65;;;;;;;8.85;100.00;95647.00;5089317;28;20450;-68
2021/10/09 09:58:16;;;;;;;22.15;6.22;;;;;;;8.84;100.00;95640.22;5071891;28;20394;-69
2021/10/09 10:00:43;;;;;;;22.58;5.97;;;;;;;8.76;100.00;95653.38;5088155;28;20439;-70
2021/10/09 10:03:11;;;;;;;3.88;1.80;;;;;;;8.81;99.97;95640.59;5091787;28;20036;-70
2021/10/09 10:05:39;;;;;;;19.30;4.47;;;;;;;8.81;100.00;95651.00;5085060;28;20040;-70
2021/10/09 10:08:11;;;;;;;17.55;3.88;;;;;;;8.77;100.00;95649.78;5087680;28;20066;-70
2021/10/09 10:10:37;;;;;;;16.48;4.30;;;;;;;8.85;99.63;95649.59;5091971;28;20081;-70
2021/10/09 10:13:04;;;;;;;28.35;7.05;;;;;;;8.82;99.38;95652.56;5067843;28;20046;-70
2021/10/09 10:15:32;;;;;;;29.88;7.63;;;;;;;8.80;100.00;95649.38;5089252;28;20125;-70
2021/10/09 10:17:59;;;;;;;31.88;8.13;;;;;;;8.78;100.00;95643.59;5099393;28;20036;-70
2021/10/09 10:20:53;;;;;;;29.17;7.55;;;;;;;8.91;100.00;95646.22;5093376;28;20112;-70
2021/10/09 10:23:36;;;;;;;6.07;2.17;;;;;;;8.91;100.00;95651.41;5089434;28;20047;-70
2021/10/09 10:26:18;;;;;;;2.15;1.70;;;;;;;9.02;100.00;95646.59;5085389;28;20046;-70
2021/10/09 10:28:51;;;;;;;17.13;4.70;;;;;;;9.03;100.00;95645.59;5083074;28;20053;-70
2021/10/09 10:31:18;;;;;;;11.60;4.93;;;;;;;8.94;99.98;95634.59;5069363;28;20059;-70
2021/10/09 10:33:59;;;;;;;29.33;8.65;;;;;;;9.06;100.00;95648.59;5090277;28;20036;-70
2021/10/09 10:36:46;;;;;;;5.32;2.55;;;;;;;9.11;99.81;95650.56;5091824;28;20113;-69
2021/10/09 10:39:19;;;;;;;25.00;7.80;;;;;;;9.17;99.42;95647.19;5101633;27;20047;-69
2021/10/09 10:42:02;;;;;;;4.43;2.47;;;;;;;9.05;97.00;95641.00;5067556;28;20146;-69
2021/10/09 10:54:49;;;;;;;2.38;1.52;;;;;;;9.31;99.19;95635.78;5098175;28;20054;-66
2021/10/09 10:59:29;;;;;;;2.63;1.65;;;;;;;9.35;98.79;95636.94;5084055;28;20044;-65
2021/10/09 11:02:13;;;;;;;12.18;4.32;;;;;;;9.48;98.51;95635.34;5061926;28;20148;-66
2021/10/09 11:04:39;;;;;;;11.70;4.05;;;;;;;9.57;97.08;95636.72;5083591;28;20093;-67
2021/10/09 11:07:07;;;;;;;10.93;3.60;;;;;;;9.60;96.79;95636.31;5087818;28;20055;-67
2021/10/09 11:09:36;;;;;;;9.88;2.38;;;;;;;9.55;96.17;95636.91;5100444;28;20051;-67
2021/10/09 11:12:04;;;;;;;5.30;3.08;;;;;;;9.60;97.11;95633.69;5085489;28;20035;-65
2021/10/09 11:14:31;;;;;;;4.95;3.20;;;;;;;9.68;97.20;95636.06;5084344;28;20098;-65
2021/10/09 11:17:02;;;;;;;3.58;2.15;;;;;;;9.76;95.06;95637.66;5065258;28;20044;-67
2021/10/09 11:19:42;;;;;;;2.03;1.58;;;;;;;9.80;94.27;95633.63;5064514;28;20047;-66
2021/10/09 11:22:10;;;;;;;4.25;2.72;;;;;;;9.71;94.14;95633.06;5068363;28;20044;-66
2021/10/09 11:24:51;;;;;;;16.45;4.88;;;;;;;9.72;94.53;95632.06;5085422;28;20044;-65
2021/10/09 11:27:20;;;;;;;17.77;3.50;;;;;;;9.75;94.99;95625.66;5088099;28;20048;-65
2021/10/09 11:30:04;;;;;;;13.00;4.80;;;;;;;9.73;95.90;95633.66;5088007;28;20040;-65
2021/10/09 11:32:37;;;;;;;4.25;2.78;;;;;;;9.63;96.05;95633.28;5088508;28;20047;-65
2021/10/09 11:35:05;;;;;;;2.08;1.48;;;;;;;9.54;95.76;95618.91;5091220;28;20040;-66
2021/10/09 11:37:33;;;;;;;3.40;1.90;;;;;;;9.70;97.46;95625.47;5093338;28;20496;-65
2021/10/09 11:40:03;;;;;;;2.10;1.20;;;;;;;9.83;97.04;95622.00;5088744;28;20044;-66
2021/10/09 11:42:33;;;;;;;2.08;1.60;;;;;;;9.87;95.76;95612.81;5106390;27;20047;-66
2021/10/09 11:56:09;;;;;;;4.32;2.17;;;;;;;9.93;96.40;95612.75;5091465;28;20047;-70
2021/10/09 11:58:48;;;;;;;3.25;2.35;;;;;;;9.89;96.50;95616.00;5074706;28;20040;-70
2021/10/09 12:01:43;;;;;;;13.02;3.97;;;;;;;9.83;97.57;95609.00;5091341;28;20044;-70
2021/10/09 12:04:21;;;;;;;24.52;8.25;;;;;;;9.98;98.57;95619.94;5090322;28;20040;-71
2021/10/09 12:06:53;;;;;;;8.77;3.97;;;;;;;10.03;98.19;95622.75;5089571;28;20048;-71
2021/10/09 12:09:40;;;;;;;5.15;2.20;;;;;;;9.95;98.41;95609.94;5095755;28;20028;-70
2021/10/09 12:12:26;;;;;;;26.60;7.53;;;;;;;9.95;97.82;95613.34;5091038;28;20500;-70
2021/10/09 12:15:23;;;;;;;7.68;4.18;;;;;;;9.99;98.40;95615.53;5095184;28;20036;-70
2021/10/09 12:17:59;;;;;;;2.47;1.80;;;;;;;9.97;98.37;95618.34;5097712;28;20043;-70
2021/10/09 12:20:27;;;;;;;2.22;1.67;;;;;;;10.00;96.38;95612.72;5095843;28;20110;-71
2021/10/09 12:22:58;;;;;;;2.10;1.35;;;;;;;9.98;97.36;95617.34;5093017;28;20063;-70
2021/10/09 12:25:27;;;;;;;3.38;1.90;;;;;;;9.92;97.90;95611.19;5095268;28;20036;-70
2021/10/09 12:28:02;;;;;;;9.65;4.50;;;;;;;9.89;97.27;95613.38;5094137;28;20048;-70
2021/10/09 12:30:46;;;;;;;7.30;3.58;;;;;;;9.71;98.47;95596.66;5091880;28;20056;-70
2021/10/09 12:33:35;;;;;;;3.85;2.40;;;;;;;9.74;98.44;95614.44;5092531;28;20048;-70
2021/10/09 12:39:23;;;;;;;16.92;6.05;;;;;;;9.65;99.74;95620.88;5093310;28;20067;-69
2021/10/09 12:41:52;;;;;;;14.27;5.45;;;;;;;9.63;99.47;95622.88;5071272;28;20059;-70
2021/10/09 12:44:21;;;;;;;17.38;5.65;;;;;;;9.48;100.00;95624.94;5088658;28;20089;-69
2021/10/09 12:46:48;;;;;;;6.50;3.72;;;;;;;9.34;100.00;95624.16;5095235;28;20044;-69
2021/10/09 12:49:16;;;;;;;15.23;5.25;;;;;;;9.22;100.00;95625.78;5067148;28;20044;-69
2021/10/09 12:51:44;;;;;;;26.52;9.75;;;;;;;9.02;100.00;95628.41;5089723;28;20055;-68
2021/10/09 12:54:15;;;;;;;14.60;6.60;;;;;;;8.97;100.00;95639.41;5088803;28;20861;-69
2021/10/09 12:56:42;;;;;;;11.48;5.30;;;;;;;8.86;100.00;95633.00;5072444;28;20047;-68
2021/10/09 12:59:09;;;;;;;7.20;3.75;;;;;;;8.82;100.00;95642.19;5091633;28;20055;-68
2021/10/09 13:01:36;;;;;;;7.20;4.10;;;;;;;8.77;100.00;95647.19;5090372;28;20052;-68
2021/10/09 13:04:03;;;;;;;13.23;6.72;;;;;;;8.71;100.00;95632.41;5073443;28;20139;-68
2021/10/09 13:06:30;;;;;;;19.30;6.68;;;;;;;8.84;100.00;95648.00;5090446;28;20097;-68
2021/10/09 13:08:57;;;;;;;8.50;4.75;;;;;;;8.76;100.00;95648.19;5093567;28;20064;-67
2021/10/09 13:11:27;;;;;;;16.50;5.85;;;;;;;8.75;100.00;95651.78;5092258;28;20039;-68
2021/10/09 13:13:54;;;;;;;30.25;8.98;;;;;;;8.74;100.00;95668.38;5090748;28;20099;-69
2021/10/09 13:16:21;;;;;;;21.58;7.78;;;;;;;8.69;100.00;95668.16;5071912;28;20519;-68
2021/10/09 13:18:48;;;;;;;9.50;4.05;;;;;;;8.68;100.00;95669.13;5092407;28;20058;-69
2021/10/09 13:21:15;;;;;;;9.13;4.80;;;;;;;8.56;100.00;95664.53;5090866;28;20173;-68
2021/10/09 13:23:41;;;;;;;10.68;4.70;;;;;;;8.50;100.00;95675.72;5093123;28;20073;-68
2021/10/09 13:26:08;;;;;;;5.65;3.72;;;;;;;8.37;100.00;95670.47;5094804;28;20504;-69
2021/10/09 13:28:37;;;;;;;6.70;4.45;;;;;;;8.33;100.00;95690.03;5093706;28;20048;-68
2021/10/09 13:31:04;;;;;;;7.32;4.18;;;;;;;8.32;100.00;95689.22;5092697;28;20044;-69
2021/10/09 13:33:31;;;;;;;5.63;3.70;;;;;;;8.33;100.00;95684.81;5095163;28;20043;-69
2021/10/09 13:35:58;;;;;;;9.10;5.70;;;;;;;8.36;100.00;95679.25;5087894;28;20060;-69
2021/10/09 13:38:30;;;;;;;10.15;5.50;;;;;;;8.43;100.00;95677.50;5084992;28;20032;-68
2021/10/09 13:40:57;;;;;;;10.32;6.32;;;;;;;8.35;100.00;95688.03;5080341;28;20133;-69
2021/10/09 13:43:24;;;;;;;8.20;5.28;;;;;;;8.37;100.00;95686.84;5086624;28;20440;-68
2021/10/09 13:45:51;;;;;;;15.15;7.30;;;;;;;8.38;100.00;95672.06;5085096;28;20059;-69
2021/10/09 13:48:18;;;;;;;25.52;12.13;;;;;;;8.51;100.00;95679.91;5067496;28;20048;-68
2021/10/09 13:50:48;;;;;;;14.00;6.38;;;;;;;8.40;100.00;95655.28;5089164;28;20047;-68
2021/10/09 13:53:15;;;;;;;16.77;7.47;;;;;;;8.57;100.00;95671.34;5088055;28;20036;-69
2021/10/09 13:55:43;;;;;;;16.77;6.97;;;;;;;8.55;100.00;95673.34;5083310;28;20051;-68
2021/10/09 13:58:12;;;;;;;18.65;8.45;;;;;;;8.62;100.00;95673.34;5088745;28;20119;-68
2021/10/09 14:00:40;;;;;;;15.93;9.35;;;;;;;8.67;100.00;95675.34;5083988;28;20052;-68